Flight Track Log - Related Links

Times and Time Zones

All times are in EDT time to prevent confusion due to time zone crossing. See the N4226K flight status page for this flight to view local times or setup timezone preferences in your user account.

Time Position Orientation Groundspeed Altitude Reporting Facility
EDT Latitude Longitude Course Direction KTS MPH feet Rate Location/Type
Sat 01:38:35 PM 27.3667 -82.5500 180° South 112 129 900  Level Tampa TRACON
Sat 01:39:35 PM 27.3333 -82.5333 156° South 122 140 1,400 444 Climbing Tampa TRACON
Sat 01:40:23 PM 27.3000 -82.5333 180° South 130 150 1,700 474 Climbing Tampa TRACON
Sat 01:41:29 PM 27.2667 -82.5333 180° South 126 145 2,300 500 Climbing Tampa TRACON
Sat 01:42:35 PM 27.2333 -82.5167 156° South 125 144 2,800 429 Climbing Tampa TRACON
Sat 01:43:00 PM 27.2425 -82.3813 135° Southeast  Level FlightAware Approximate
Sat 01:43:35 PM 27.2000 -82.5000 156° South 122 140 3,200  Level Tampa TRACON
Sat 01:44:29 PM 27.1667 -82.4833 156° South 122 140 3,700 495 Climbing Tampa TRACON
Sat 01:45:24 PM 27.1500 -82.4667 138° Southeast 121 139 4,100 436 Climbing Tampa TRACON
Sat 01:47:00 PM 27.1319 -82.4049 108° East  Level FlightAware Approximate
Sat 01:54:00 PM 26.9128 -82.2630 158° South  Level Estimated
Sat 01:55:00 PM 26.9056 -82.2233 101° East  Level FlightAware Approximate
Sat 01:56:00 PM 26.8984 -82.1836 101° East  Level FlightAware Approximate
Sat 01:57:00 PM 26.8913 -82.1439 101° East  Level FlightAware Approximate
Sat 01:58:00 PM 26.8583 -82.1273 157° South  Level Estimated
Sat 01:59:00 PM 26.8259 -82.1093 154° Southeast  Level FlightAware Approximate
Sat 02:00:00 PM 26.7935 -82.0914 154° Southeast  Level FlightAware Approximate
Sat 02:01:00 PM 26.7611 -82.0734 154° Southeast  Level FlightAware Approximate
Sat 02:02:00 PM 26.7287 -82.0555 154° Southeast  Level FlightAware Approximate
Sat 02:03:00 PM 26.6963 -82.0376 154° Southeast  Level FlightAware Approximate
Sat 02:04:00 PM 26.6639 -82.0196 154° Southeast  Level FlightAware Approximate
Sat 02:05:00 PM 26.6315 -82.0017 154° Southeast  Level FlightAware Approximate
Sat 02:06:00 PM 26.5991 -81.9838 154° Southeast  Level FlightAware Approximate
Sat 02:07:00 PM 26.5667 -81.9659 154° Southeast  Level FlightAware Approximate
Sat 02:08:00 PM 26.5342 -81.9481 154° Southeast  Level FlightAware Approximate
Sat 02:09:00 PM 26.5018 -81.9302 154° Southeast  Level FlightAware Approximate
Sat 02:10:00 PM 26.4694 -81.9124 154° Southeast  Level FlightAware Approximate
Sat 02:11:00 PM 26.4370 -81.8945 154° Southeast  Level FlightAware Approximate
Sat 02:12:00 PM 26.4031 -81.8803 160° South  Level Estimated
Sat 02:13:00 PM 26.3694 -81.8658 159° South  Level FlightAware Approximate
Sat 02:14:00 PM 26.3357 -81.8512 159° South  Level FlightAware Approximate
Sat 02:15:00 PM 26.3020 -81.8367 159° South  Level FlightAware Approximate
Sat 02:16:00 PM 26.2683 -81.8222 159° South  Level FlightAware Approximate
Sat 02:17:00 PM 26.2345 -81.8077 159° South  Level FlightAware Approximate
Sat 02:18:00 PM 26.2004 -81.7944 156° South  Level Estimated
Sat 02:19:00 PM 26.1680 -81.7766 154° Southeast  Level FlightAware Approximate
Sat 02:20:00 PM 26.1500 -81.7667 156° South  Level FlightAware Approximate
Sat 02:21:00 PM 26.1524 -81.7756 156° South  Level Estimated
Sat 02:22:00 PM 26.1524 -81.7756 156° South  Level Estimated
Sat 02:23:00 PM 26.1524 -81.7756 156° South  Level Estimated
Sat 02:24:00 PM 26.1524 -81.7756 156° South  Level Estimated
Sat 02:25:00 PM 26.1524 -81.7756 156° South  Level Estimated
Sat 02:26:00 PM 26.1524 -81.7756 156° South  Level Estimated

Login

Don't have an account? Register now (free) for customized features, flight alerts, and more!